createdAt,value
2019-01-30T00:00:00.554Z,0.47
2019-01-30T00:02:27.602Z,0.86
2019-01-30T00:04:54.686Z,0.46
2019-01-30T00:07:21.747Z,0.38
2019-01-30T00:09:50.626Z,0.51
2019-01-30T00:12:18.064Z,0.67
2019-01-30T00:14:47.030Z,0.48
2019-01-30T00:17:14.103Z,0.32
2019-01-30T00:19:41.176Z,0.34
2019-01-30T00:22:08.553Z,0.68
2019-01-30T00:24:35.627Z,0.35
2019-01-30T00:27:03.188Z,0.24
2019-01-30T00:29:30.589Z,0.29
2019-01-30T00:31:58.381Z,0.48
2019-01-30T00:34:28.332Z,0.64
2019-01-30T00:36:55.399Z,0.42
2019-01-30T00:39:22.483Z,0.39
2019-01-30T00:41:50.747Z,0.49
2019-01-30T00:44:17.961Z,0.62
2019-01-30T00:46:45.719Z,0.86
2019-01-30T00:49:13.174Z,0.68
2019-01-30T00:51:40.259Z,0.57
2019-01-30T00:54:07.678Z,0.32
2019-01-30T00:56:35.446Z,0.54
2019-01-30T00:59:03.852Z,0.72
2019-01-30T01:01:31.589Z,0.55
2019-01-30T01:03:59.350Z,0.51
2019-01-30T01:06:27.553Z,0.52
2019-01-30T01:08:54.978Z,1.00
2019-01-30T01:11:22.337Z,0.57
2019-01-30T01:13:49.997Z,0.53
2019-01-30T01:16:17.454Z,0.55
2019-01-30T01:18:44.807Z,0.90
2019-01-30T01:21:13.287Z,0.63
2019-01-30T01:23:40.946Z,0.60
2019-01-30T01:26:08.019Z,0.42
2019-01-30T01:28:35.128Z,0.34
2019-01-30T01:31:02.816Z,0.98
2019-01-30T01:33:30.256Z,0.89
2019-01-30T01:35:57.614Z,0.54
2019-01-30T01:38:25.072Z,0.52
2019-01-30T01:40:52.733Z,0.51
2019-01-30T01:43:20.120Z,0.50
2019-01-30T01:45:48.569Z,0.33
2019-01-30T01:48:15.831Z,0.68
2019-01-30T01:50:42.884Z,0.37
2019-01-30T01:53:11.749Z,0.34
2019-01-30T01:55:38.823Z,0.36
2019-01-30T01:58:05.966Z,0.64
2019-01-30T02:00:35.599Z,0.42
2019-01-30T02:03:02.299Z,0.33
2019-01-30T02:05:29.367Z,0.36
2019-01-30T02:07:57.111Z,0.28
2019-01-30T02:10:24.680Z,0.39
2019-01-30T02:12:52.137Z,0.25
2019-01-30T02:15:21.055Z,0.27
2019-01-30T02:17:48.123Z,0.47
2019-01-30T02:20:17.561Z,0.45
2019-01-30T02:22:44.641Z,0.61
2019-01-30T02:25:13.313Z,0.22
2019-01-30T02:27:40.406Z,0.36
2019-01-30T02:30:12.412Z,0.24
2019-01-30T02:32:39.856Z,0.08
2019-01-30T02:35:07.004Z,0.66
2019-01-30T02:37:34.590Z,0.22
2019-01-30T02:40:02.869Z,0.33
2019-01-30T02:42:30.031Z,0.58
2019-01-30T02:44:58.932Z,0.55
2019-01-30T02:47:25.997Z,0.36
2019-01-30T02:49:53.466Z,0.31
2019-01-30T02:52:21.560Z,0.27
2019-01-30T02:54:48.936Z,0.27
2019-01-30T02:57:16.290Z,0.32
2019-01-30T02:59:43.746Z,0.47
2019-01-30T03:02:20.582Z,0.25
2019-01-30T03:04:47.999Z,0.71
2019-01-30T03:07:15.433Z,0.27
2019-01-30T03:09:42.787Z,0.59
2019-01-30T03:12:11.269Z,0.31
2019-01-30T03:14:38.622Z,0.20
2019-01-30T03:17:06.820Z,0.25
2019-01-30T03:19:34.561Z,0.24
2019-01-30T03:22:02.691Z,0.23
2019-01-30T03:24:30.701Z,0.39
2019-01-30T03:26:58.158Z,0.30
2019-01-30T03:29:26.947Z,0.35
2019-01-30T03:31:54.722Z,0.37
2019-01-30T03:34:21.777Z,0.35
2019-01-30T03:36:49.212Z,0.31
2019-01-30T03:39:16.570Z,0.44
2019-01-30T03:41:44.237Z,0.65
2019-01-30T03:44:11.995Z,0.43
2019-01-30T03:46:39.081Z,0.13
2019-01-30T03:49:06.133Z,0.09
2019-01-30T03:51:33.546Z,0.23
2019-01-30T03:54:00.603Z,0.49
2019-01-30T03:56:27.703Z,0.19
2019-01-30T03:58:55.542Z,0.14
2019-01-30T04:01:26.687Z,0.20
2019-01-30T04:03:52.980Z,0.22
2019-01-30T04:06:20.337Z,0.25
2019-01-30T04:08:48.000Z,0.45
2019-01-30T04:11:16.033Z,0.18
2019-01-30T04:13:43.833Z,0.42
2019-01-30T04:16:11.203Z,0.16
2019-01-30T04:18:38.594Z,0.13
2019-01-30T04:21:06.304Z,0.31
2019-01-30T04:23:33.385Z,0.20
2019-01-30T04:26:01.544Z,0.23
2019-01-30T04:28:29.211Z,0.59
2019-01-30T04:30:57.668Z,0.26
2019-01-30T04:33:26.047Z,0.46
2019-01-30T04:35:53.582Z,0.27
2019-01-30T04:38:21.268Z,0.08
2019-01-30T04:40:48.666Z,0.09
2019-01-30T04:43:18.021Z,0.18
2019-01-30T04:45:45.376Z,0.39
2019-01-30T04:48:12.730Z,0.27
2019-01-30T04:50:59.957Z,0.31
2019-01-30T04:53:44.496Z,0.21
2019-01-30T04:56:30.325Z,0.23
2019-01-30T04:59:13.501Z,0.19
2019-01-30T05:01:55.403Z,0.26
2019-01-30T05:04:38.412Z,0.31
2019-01-30T05:07:14.760Z,0.19
2019-01-30T05:10:02.411Z,0.03
2019-01-30T05:12:53.173Z,0.06
2019-01-30T05:15:30.455Z,0.45
2019-01-30T05:18:15.987Z,0.30
2019-01-30T05:21:06.841Z,0.36
2019-01-30T05:23:50.034Z,0.13
2019-01-30T05:26:36.155Z,0.18
2019-01-30T05:29:14.843Z,0.14
2019-01-30T05:32:00.924Z,0.22
2019-01-30T05:34:25.686Z,0.19
2019-01-30T05:37:13.052Z,0.06
2019-01-30T05:39:53.336Z,0.19
2019-01-30T05:42:21.884Z,0.08
2019-01-30T05:44:50.389Z,0.01
2019-01-30T05:47:18.922Z,0.38
2019-01-30T05:49:46.628Z,0.16
2019-01-30T05:52:13.720Z,0.24
2019-01-30T05:54:40.772Z,0.29
2019-01-30T05:57:09.268Z,0.39
2019-01-30T05:59:37.126Z,0.38
2019-01-30T06:02:11.837Z,0.14
2019-01-30T06:04:34.683Z,0.12
2019-01-30T06:07:02.816Z,0.44
2019-01-30T06:09:29.919Z,0.29
2019-01-30T06:11:57.111Z,0.63
2019-01-30T06:14:24.210Z,0.39
2019-01-30T06:16:51.622Z,0.35
2019-01-30T06:19:18.706Z,0.32
2019-01-30T06:21:46.075Z,0.41
2019-01-30T06:24:13.893Z,0.35
2019-01-30T06:26:41.347Z,0.16
2019-01-30T06:29:09.110Z,0.36
2019-01-30T06:31:37.387Z,0.41
2019-01-30T06:34:05.159Z,0.24
2019-01-30T06:36:33.631Z,0.30
2019-01-30T06:39:01.327Z,0.38
2019-01-30T06:41:30.492Z,0.39
2019-01-30T06:43:57.990Z,0.36
2019-01-30T06:46:25.304Z,0.23
2019-01-30T06:48:52.761Z,0.24
2019-01-30T06:51:20.219Z,0.22
2019-01-30T06:53:47.329Z,0.34
2019-01-30T06:56:14.719Z,0.24
2019-01-30T06:58:42.488Z,0.52
2019-01-30T07:01:10.968Z,0.60
2019-01-30T07:03:38.356Z,0.40
2019-01-30T07:06:07.726Z,0.42
2019-01-30T07:08:34.454Z,0.42
2019-01-30T07:11:10.384Z,0.36
2019-01-30T07:13:30.817Z,0.70
2019-01-30T07:15:58.272Z,0.57
2019-01-30T07:18:25.622Z,0.63
2019-01-30T07:20:54.205Z,0.41
2019-01-30T07:23:21.970Z,0.59
2019-01-30T07:25:49.524Z,0.59
2019-01-30T07:28:18.010Z,0.86
2019-01-30T07:30:45.119Z,0.87
2019-01-30T07:33:12.361Z,0.40
2019-01-30T07:35:39.471Z,0.62
2019-01-30T07:38:07.224Z,0.63
2019-01-30T07:40:34.575Z,0.80
2019-01-30T07:43:02.132Z,0.69
2019-01-30T07:45:30.819Z,0.93
2019-01-30T07:47:58.022Z,0.84
2019-01-30T07:50:25.731Z,0.95
2019-01-30T07:52:53.395Z,0.97
2019-01-30T07:55:20.442Z,0.80
2019-01-30T07:57:49.944Z,0.99
2019-01-30T08:00:22.832Z,1.05
2019-01-30T08:02:53.270Z,1.23
2019-01-30T08:05:19.289Z,1.06
2019-01-30T08:07:46.383Z,0.95
2019-01-30T08:10:13.540Z,1.17
2019-01-30T08:12:40.645Z,1.51
2019-01-30T08:15:10.825Z,1.22
2019-01-30T08:17:37.918Z,1.15
2019-01-30T08:20:09.442Z,1.27
2019-01-30T08:22:36.541Z,1.32
2019-01-30T08:25:05.718Z,1.38
2019-01-30T08:27:34.633Z,1.50
2019-01-30T08:30:05.721Z,1.51
2019-01-30T08:32:33.734Z,1.45
2019-01-30T08:35:01.193Z,1.42
2019-01-30T08:37:29.433Z,1.72
2019-01-30T08:39:56.513Z,1.87
2019-01-30T08:42:23.926Z,1.59
2019-01-30T08:44:51.351Z,2.16
2019-01-30T08:47:18.429Z,1.79
2019-01-30T08:49:45.483Z,2.18
2019-01-30T08:52:12.530Z,1.91
2019-01-30T08:54:39.646Z,2.07
2019-01-30T08:57:06.795Z,2.27
2019-01-30T08:59:35.251Z,2.04
2019-01-30T09:02:02.662Z,2.15
2019-01-30T09:04:30.080Z,2.45
2019-01-30T09:06:59.596Z,2.19
2019-01-30T09:09:26.978Z,2.37
2019-01-30T09:11:54.849Z,2.58
2019-01-30T09:14:22.301Z,2.24
2019-01-30T09:16:49.432Z,2.49
2019-01-30T09:19:17.215Z,2.30
2019-01-30T09:21:46.101Z,2.64
2019-01-30T09:24:16.234Z,2.60
2019-01-30T09:26:43.788Z,2.35
2019-01-30T09:29:12.906Z,2.24
2019-01-30T09:31:40.336Z,2.27
2019-01-30T09:34:07.409Z,2.57
2019-01-30T09:36:36.886Z,3.10
2019-01-30T09:39:07.570Z,2.55
2019-01-30T09:41:34.860Z,2.50
2019-01-30T09:44:02.248Z,2.48
2019-01-30T09:46:29.336Z,2.70
2019-01-30T09:48:57.143Z,3.00
2019-01-30T09:51:24.598Z,2.87
2019-01-30T09:53:52.135Z,3.05
2019-01-30T09:56:19.518Z,2.89
2019-01-30T09:58:46.853Z,2.86
2019-01-30T10:01:14.326Z,3.17
2019-01-30T10:03:41.773Z,3.01
2019-01-30T10:06:09.504Z,3.15
2019-01-30T10:08:36.602Z,3.38
2019-01-30T10:11:03.831Z,3.76
2019-01-30T10:13:30.917Z,3.51
2019-01-30T10:15:59.190Z,3.80
2019-01-30T10:18:28.240Z,3.53
2019-01-30T10:20:55.835Z,4.12
2019-01-30T10:23:23.960Z,4.25
2019-01-30T10:25:51.033Z,4.39
2019-01-30T10:28:18.239Z,4.25
2019-01-30T10:30:45.796Z,4.64
2019-01-30T10:33:12.896Z,3.58
2019-01-30T10:35:40.114Z,3.52
2019-01-30T10:38:07.335Z,3.83
2019-01-30T10:40:34.378Z,4.46
2019-01-30T10:43:01.484Z,4.76
2019-01-30T10:45:28.559Z,4.15
2019-01-30T10:47:55.663Z,4.15
2019-01-30T10:50:25.097Z,4.57
2019-01-30T10:52:52.381Z,4.63
2019-01-30T10:55:21.739Z,4.84
2019-01-30T10:57:51.207Z,4.33
2019-01-30T11:00:23.715Z,4.54
2019-01-30T11:02:50.828Z,4.58
2019-01-30T11:05:19.686Z,4.80
2019-01-30T11:07:47.025Z,4.58
2019-01-30T11:10:15.961Z,4.88
2019-01-30T11:12:43.030Z,4.54
2019-01-30T11:15:12.662Z,4.38
2019-01-30T11:17:39.786Z,4.85
2019-01-30T11:20:08.386Z,4.10
2019-01-30T11:22:35.759Z,4.23
2019-01-30T11:25:05.636Z,4.06
2019-01-30T11:27:32.783Z,3.89
2019-01-30T11:30:01.203Z,4.09
2019-01-30T11:32:29.800Z,3.78
2019-01-30T11:34:57.222Z,4.19
2019-01-30T11:37:26.852Z,3.93
2019-01-30T11:39:54.443Z,3.91
2019-01-30T11:42:22.379Z,4.37
2019-01-30T11:44:49.487Z,4.46
2019-01-30T11:47:16.883Z,4.25
2019-01-30T11:49:46.002Z,4.40
2019-01-30T11:52:13.053Z,4.24
2019-01-30T11:54:40.542Z,4.07
2019-01-30T11:57:07.942Z,4.39
2019-01-30T11:59:36.143Z,4.15
2019-01-30T12:02:03.229Z,4.40
2019-01-30T12:04:30.752Z,4.04
2019-01-30T12:06:58.488Z,4.52
2019-01-30T12:09:30.647Z,4.69
2019-01-30T12:11:58.874Z,4.12
2019-01-30T12:14:28.323Z,4.45
2019-01-30T12:16:55.772Z,3.82
2019-01-30T12:19:24.366Z,4.11
2019-01-30T12:21:52.032Z,4.22
2019-01-30T12:24:19.383Z,4.20
2019-01-30T12:26:47.067Z,4.49
2019-01-30T12:29:14.131Z,4.39
2019-01-30T12:31:42.285Z,4.45
2019-01-30T12:34:09.723Z,4.25
2019-01-30T12:36:38.112Z,4.19
2019-01-30T12:39:08.831Z,4.71
2019-01-30T12:41:36.700Z,4.29
2019-01-30T12:44:05.892Z,4.33
2019-01-30T12:46:32.959Z,4.57
2019-01-30T12:49:00.061Z,4.93
2019-01-30T12:51:27.156Z,4.97
2019-01-30T12:53:54.223Z,4.73
2019-01-30T12:56:22.410Z,4.90
2019-01-30T12:58:50.521Z,4.21
2019-01-30T13:01:17.598Z,4.44
2019-01-30T13:03:45.188Z,4.80
2019-01-30T13:06:14.442Z,4.68
2019-01-30T13:08:41.810Z,4.45
2019-01-30T13:11:10.274Z,4.33
2019-01-30T13:13:37.347Z,4.10
2019-01-30T13:16:05.906Z,4.11
2019-01-30T13:18:33.370Z,4.35
2019-01-30T13:21:00.456Z,4.72
2019-01-30T13:23:28.890Z,5.52
2019-01-30T13:25:55.974Z,5.63
2019-01-30T13:28:23.040Z,5.78
2019-01-30T13:30:51.471Z,6.30
2019-01-30T13:33:19.232Z,6.11
2019-01-30T13:35:46.369Z,5.09
2019-01-30T13:38:13.848Z,5.03
2019-01-30T13:40:41.539Z,4.73
2019-01-30T13:43:09.059Z,5.09
2019-01-30T13:45:36.167Z,5.06
2019-01-30T13:48:06.012Z,4.76
2019-01-30T13:50:33.410Z,4.57
2019-01-30T13:53:00.469Z,4.52
2019-01-30T13:55:28.114Z,4.42
2019-01-30T13:57:55.236Z,4.62
2019-01-30T14:00:27.022Z,4.25
2019-01-30T14:02:54.757Z,4.06
2019-01-30T14:05:21.915Z,3.77
2019-01-30T14:07:49.911Z,4.14
2019-01-30T14:10:17.753Z,3.78
2019-01-30T14:12:45.978Z,4.01
2019-01-30T14:15:15.101Z,3.93
2019-01-30T14:17:43.612Z,3.98
2019-01-30T14:20:12.037Z,4.20
2019-01-30T14:22:39.087Z,4.22
2019-01-30T14:25:07.813Z,4.25
2019-01-30T14:27:36.080Z,3.91
2019-01-30T14:30:05.907Z,3.88
2019-01-30T14:32:34.784Z,3.86
2019-01-30T14:35:10.572Z,4.05
2019-01-30T14:37:30.867Z,3.88
2019-01-30T14:39:58.251Z,4.29
2019-01-30T14:42:26.967Z,4.21
2019-01-30T14:44:54.340Z,3.80
2019-01-30T14:47:24.232Z,4.00
2019-01-30T14:49:52.096Z,3.69
2019-01-30T14:52:20.915Z,3.96
2019-01-30T14:54:49.127Z,3.61
2019-01-30T14:57:16.209Z,3.38
2019-01-30T14:59:43.330Z,3.24
2019-01-30T15:02:10.504Z,3.41
2019-01-30T15:04:38.892Z,3.48
2019-01-30T15:07:06.394Z,3.33
2019-01-30T15:09:34.807Z,3.31
2019-01-30T15:12:01.884Z,3.28
2019-01-30T15:14:28.964Z,3.21
2019-01-30T15:16:56.073Z,3.38
2019-01-30T15:19:26.148Z,3.23
2019-01-30T15:21:53.324Z,3.12
2019-01-30T15:24:20.418Z,3.23
2019-01-30T15:26:47.748Z,3.16
2019-01-30T15:29:16.654Z,3.09
2019-01-30T15:31:44.119Z,3.22
2019-01-30T15:34:11.240Z,3.03
2019-01-30T15:36:38.368Z,3.07
2019-01-30T15:39:08.363Z,3.10
2019-01-30T15:41:35.845Z,3.07
2019-01-30T15:44:02.931Z,3.09
2019-01-30T15:46:30.025Z,2.97
2019-01-30T15:48:57.419Z,3.03
2019-01-30T15:51:24.520Z,3.19
2019-01-30T15:53:51.601Z,2.99
2019-01-30T15:56:18.797Z,2.87
2019-01-30T15:58:48.267Z,2.93
2019-01-30T16:01:23.298Z,2.91
2019-01-30T16:03:50.753Z,2.89
2019-01-30T16:06:18.111Z,2.69
2019-01-30T16:08:45.883Z,2.87
2019-01-30T16:11:13.231Z,2.65
2019-01-30T16:13:41.620Z,2.56
2019-01-30T16:16:10.526Z,2.61
2019-01-30T16:18:37.855Z,2.49
2019-01-30T16:21:04.979Z,2.73
2019-01-30T16:23:33.382Z,2.85
2019-01-30T16:26:01.560Z,2.54
2019-01-30T16:28:32.664Z,2.58
2019-01-30T16:30:59.756Z,2.74
2019-01-30T16:33:27.216Z,2.85
2019-01-30T16:35:56.623Z,2.60
2019-01-30T16:38:23.749Z,2.67
2019-01-30T16:40:50.936Z,2.58
2019-01-30T16:43:20.416Z,2.57
2019-01-30T16:45:47.875Z,2.90
2019-01-30T16:48:15.142Z,2.69
2019-01-30T16:50:42.347Z,2.56
2019-01-30T16:53:09.831Z,2.60
2019-01-30T16:55:37.930Z,2.66
2019-01-30T16:58:07.401Z,2.70
2019-01-30T17:00:35.632Z,2.78
2019-01-30T17:03:02.812Z,2.59
2019-01-30T17:05:30.243Z,2.56
2019-01-30T17:07:57.894Z,2.47
2019-01-30T17:10:24.985Z,2.76
2019-01-30T17:12:52.414Z,2.60
2019-01-30T17:15:21.755Z,2.62
2019-01-30T17:17:50.624Z,2.67
2019-01-30T17:20:22.838Z,2.63
2019-01-30T17:22:49.890Z,2.56
2019-01-30T17:25:18.988Z,2.77
2019-01-30T17:27:56.626Z,2.60
2019-01-30T17:30:47.753Z,2.79
2019-01-30T17:33:17.437Z,2.57
2019-01-30T17:35:52.509Z,2.63
2019-01-30T17:38:32.297Z,2.70
2019-01-30T17:41:01.585Z,2.76
2019-01-30T17:43:32.419Z,2.80
2019-01-30T17:46:10.942Z,2.87
2019-01-30T17:48:50.495Z,2.86
2019-01-30T17:51:30.267Z,2.58
2019-01-30T17:54:00.753Z,2.77
2019-01-30T17:56:39.781Z,2.73
2019-01-30T17:59:08.325Z,2.79
2019-01-30T18:01:35.989Z,2.62
2019-01-30T18:04:04.671Z,2.59
2019-01-30T18:06:32.571Z,2.69
2019-01-30T18:08:59.639Z,2.66
2019-01-30T18:11:28.134Z,2.62
2019-01-30T18:13:55.413Z,2.54
2019-01-30T18:16:26.909Z,2.70
2019-01-30T18:18:53.985Z,2.63
2019-01-30T18:21:25.265Z,2.66
2019-01-30T18:23:52.431Z,2.46
2019-01-30T18:26:21.541Z,2.61
2019-01-30T18:28:50.667Z,2.62
2019-01-30T18:31:17.737Z,2.66
2019-01-30T18:33:44.821Z,2.53
2019-01-30T18:36:13.022Z,2.52
2019-01-30T18:38:40.471Z,2.57
2019-01-30T18:41:07.547Z,2.65
2019-01-30T18:43:35.141Z,2.94
2019-01-30T18:46:02.494Z,2.73
2019-01-30T18:48:29.794Z,2.68
2019-01-30T18:50:57.131Z,2.67
2019-01-30T18:53:24.867Z,2.67
2019-01-30T18:55:52.247Z,2.83
2019-01-30T18:58:21.419Z,2.65
2019-01-30T19:00:48.505Z,2.49
2019-01-30T19:03:17.237Z,2.21
2019-01-30T19:05:44.310Z,2.49
2019-01-30T19:08:11.754Z,2.48
2019-01-30T19:10:38.948Z,2.52
2019-01-30T19:13:06.388Z,2.60
2019-01-30T19:15:33.824Z,2.46
2019-01-30T19:18:00.939Z,2.50
2019-01-30T19:20:30.368Z,2.41
2019-01-30T19:22:57.455Z,2.46
2019-01-30T19:25:24.878Z,2.30
2019-01-30T19:27:52.336Z,2.40
2019-01-30T19:30:24.494Z,2.37
2019-01-30T19:32:52.470Z,2.41
2019-01-30T19:35:19.856Z,2.27
2019-01-30T19:37:47.085Z,2.28
2019-01-30T19:40:15.605Z,2.20
2019-01-30T19:42:42.728Z,2.39
2019-01-30T19:45:11.691Z,2.25
2019-01-30T19:47:38.895Z,2.17
2019-01-30T19:50:09.985Z,2.36
2019-01-30T19:52:37.348Z,2.30
2019-01-30T19:55:04.973Z,2.40
2019-01-30T19:57:32.054Z,2.30
2019-01-30T19:59:59.756Z,2.23
2019-01-30T20:02:26.965Z,2.36
2019-01-30T20:04:55.076Z,2.34
2019-01-30T20:07:22.495Z,2.33
2019-01-30T20:09:50.264Z,2.47
2019-01-30T20:12:17.343Z,2.08
2019-01-30T20:14:45.527Z,2.14
2019-01-30T20:17:12.616Z,2.12
2019-01-30T20:19:40.292Z,2.21
2019-01-30T20:22:10.001Z,2.45
2019-01-30T20:24:38.401Z,2.31
2019-01-30T20:27:05.710Z,2.30
2019-01-30T20:29:35.442Z,2.43
2019-01-30T20:32:02.962Z,2.61
2019-01-30T20:34:30.159Z,2.35
2019-01-30T20:36:57.355Z,2.35
2019-01-30T20:39:24.714Z,2.34
2019-01-30T20:41:53.596Z,2.39
2019-01-30T20:44:20.859Z,2.34
2019-01-30T20:46:47.927Z,2.55
2019-01-30T20:49:15.074Z,2.23
2019-01-30T20:51:43.193Z,2.05
2019-01-30T20:54:10.335Z,1.96
2019-01-30T20:56:37.379Z,1.90
2019-01-30T20:59:04.536Z,1.93
2019-01-30T21:01:31.615Z,1.61
2019-01-30T21:03:58.655Z,2.01
2019-01-30T21:06:25.756Z,2.07
2019-01-30T21:08:54.123Z,1.81
2019-01-30T21:11:21.163Z,2.09
2019-01-30T21:13:48.324Z,1.65
2019-01-30T21:16:15.373Z,1.91
2019-01-30T21:18:44.212Z,2.07
2019-01-30T21:21:11.463Z,2.05
2019-01-30T21:23:38.498Z,1.72
2019-01-30T21:26:05.830Z,1.75
2019-01-30T21:28:32.896Z,2.02
2019-01-30T21:30:59.963Z,1.88
2019-01-30T21:33:27.988Z,1.74
2019-01-30T21:35:55.546Z,1.60
2019-01-30T21:38:24.026Z,1.75
2019-01-30T21:40:51.083Z,1.99
2019-01-30T21:43:18.406Z,1.66
2019-01-30T21:45:47.005Z,1.99
2019-01-30T21:48:14.054Z,1.78
2019-01-30T21:50:41.410Z,1.84
2019-01-30T21:53:08.458Z,1.90
2019-01-30T21:55:36.543Z,2.18
2019-01-30T21:58:05.113Z,1.86
2019-01-30T22:00:32.570Z,1.97
2019-01-30T22:03:00.438Z,1.71
2019-01-30T22:05:28.609Z,1.81
2019-01-30T22:08:00.887Z,1.88
2019-01-30T22:10:26.618Z,1.86
2019-01-30T22:12:54.255Z,1.74
2019-01-30T22:15:22.226Z,2.04
2019-01-30T22:17:49.584Z,1.98
2019-01-30T22:20:21.766Z,1.64
2019-01-30T22:22:50.141Z,1.93
2019-01-30T22:25:20.648Z,1.92
2019-01-30T22:27:47.620Z,1.66
2019-01-30T22:30:26.521Z,1.73
2019-01-30T22:32:54.495Z,1.66
2019-01-30T22:35:22.155Z,1.91
2019-01-30T22:37:49.210Z,1.82
2019-01-30T22:40:16.287Z,1.79
2019-01-30T22:42:43.341Z,1.98
2019-01-30T22:45:12.443Z,2.03
2019-01-30T22:47:40.259Z,2.23
2019-01-30T22:50:08.784Z,1.72
2019-01-30T22:52:38.045Z,2.24
2019-01-30T22:55:06.711Z,1.92
2019-01-30T22:57:34.387Z,2.15
2019-01-30T23:00:01.503Z,1.99
2019-01-30T23:02:31.554Z,1.96
2019-01-30T23:05:17.894Z,2.37
2019-01-30T23:08:10.018Z,1.92
2019-01-30T23:11:14.704Z,2.27
2019-01-30T23:14:08.987Z,1.77
2019-01-30T23:17:19.575Z,2.03
2019-01-30T23:20:22.759Z,1.89
2019-01-30T23:23:18.125Z,1.93
2019-01-30T23:26:11.539Z,2.02
2019-01-30T23:29:31.618Z,1.86
2019-01-30T23:32:37.078Z,2.11
2019-01-30T23:36:00.017Z,1.99
2019-01-30T23:39:24.022Z,2.18
2019-01-30T23:42:23.590Z,2.40
2019-01-30T23:44:58.392Z,2.29
2019-01-30T23:47:51.417Z,2.01
2019-01-30T23:50:46.661Z,2.13
2019-01-30T23:54:13.911Z,2.17
2019-01-30T23:57:40.814Z,2.12
